createdAt,value
2023-05-10T00:01:18.535Z,12.90
2023-05-10T00:03:45.302Z,12.80
2023-05-10T00:06:12.009Z,12.70
2023-05-10T00:08:38.719Z,12.70
2023-05-10T00:11:05.602Z,12.30
2023-05-10T00:13:32.980Z,12.70
2023-05-10T00:15:59.679Z,12.70
2023-05-10T00:18:26.774Z,12.60
2023-05-10T00:20:53.516Z,12.50
2023-05-10T00:23:20.361Z,12.40
2023-05-10T00:25:46.939Z,12.20
2023-05-10T00:28:13.688Z,12.40
2023-05-10T00:30:40.393Z,12.40
2023-05-10T00:33:07.032Z,12.40
2023-05-10T00:35:33.725Z,12.80
2023-05-10T00:38:00.300Z,12.60
2023-05-10T00:40:27.133Z,12.40
2023-05-10T00:42:53.795Z,12.30
2023-05-10T00:45:20.428Z,12.20
2023-05-10T00:47:47.212Z,12.30
2023-05-10T00:50:15.343Z,12.20
2023-05-10T00:52:43.646Z,12.20
2023-05-10T00:55:12.491Z,12.20
2023-05-10T00:57:39.565Z,12.20
2023-05-10T01:00:06.847Z,12.20
2023-05-10T01:02:35.368Z,12.20
2023-05-10T01:05:04.496Z,12.20
2023-05-10T01:07:31.226Z,12.20
2023-05-10T01:09:58.480Z,12.20
2023-05-10T01:12:25.230Z,12.20
2023-05-10T01:14:52.135Z,12.20
2023-05-10T01:17:19.084Z,12.20
2023-05-10T01:19:45.801Z,12.10
2023-05-10T01:22:18.233Z,12.10
2023-05-10T01:25:29.321Z,12.20
2023-05-10T01:28:33.030Z,12.20
2023-05-10T01:31:05.852Z,12.20
2023-05-10T01:33:57.925Z,12.20
2023-05-10T01:36:31.723Z,12.30
2023-05-10T01:39:17.292Z,12.20
2023-05-10T01:41:54.791Z,12.20
2023-05-10T01:44:36.424Z,12.10
2023-05-10T01:47:16.375Z,12.10
2023-05-10T01:49:50.938Z,12.10
2023-05-10T01:52:20.711Z,12.10
2023-05-10T01:54:56.264Z,12.10
2023-05-10T01:57:26.885Z,12.00
2023-05-10T01:59:54.541Z,12.00
2023-05-10T02:02:22.698Z,12.00
2023-05-10T02:04:51.499Z,12.00
2023-05-10T02:07:18.994Z,11.90
2023-05-10T02:09:48.877Z,11.80
2023-05-10T02:12:17.018Z,12.00
2023-05-10T02:14:45.503Z,11.90
2023-05-10T02:17:13.038Z,11.80
2023-05-10T02:19:42.505Z,11.80
2023-05-10T02:22:10.626Z,11.90
2023-05-10T02:24:38.899Z,11.80
2023-05-10T02:27:07.098Z,11.70
2023-05-10T02:29:34.448Z,11.80
2023-05-10T02:32:02.651Z,11.70
2023-05-10T02:34:30.127Z,12.30
2023-05-10T02:36:57.646Z,11.80
2023-05-10T02:39:25.664Z,11.80
2023-05-10T02:41:54.436Z,11.90
2023-05-10T02:44:23.427Z,11.90
2023-05-10T02:46:50.418Z,11.90
2023-05-10T02:49:17.167Z,11.90
2023-05-10T02:51:49.924Z,11.90
2023-05-10T02:54:42.179Z,11.90
2023-05-10T02:57:15.776Z,11.90
2023-05-10T02:59:43.904Z,11.90
2023-05-10T03:02:11.903Z,11.90
2023-05-10T03:04:38.576Z,11.90
2023-05-10T03:07:05.719Z,11.90
2023-05-10T03:09:33.413Z,11.90
2023-05-10T03:12:23.251Z,11.90
2023-05-10T03:15:01.540Z,12.00
2023-05-10T03:17:47.023Z,12.00
2023-05-10T03:20:26.940Z,12.00
2023-05-10T03:23:01.257Z,12.00
2023-05-10T03:25:28.413Z,12.00
2023-05-10T03:27:55.737Z,12.10
2023-05-10T03:30:23.102Z,12.00
2023-05-10T03:32:49.755Z,12.00
2023-05-10T03:35:16.431Z,12.00
2023-05-10T03:37:43.067Z,12.00
2023-05-10T03:40:09.931Z,12.00
2023-05-10T03:42:36.735Z,12.10
2023-05-10T03:45:03.939Z,12.10
2023-05-10T03:47:30.754Z,12.10
2023-05-10T03:49:57.469Z,11.90
2023-05-10T03:52:24.068Z,12.10
2023-05-10T03:54:50.689Z,11.90
2023-05-10T03:57:17.264Z,12.10
2023-05-10T03:59:43.871Z,12.00
2023-05-10T04:02:10.506Z,12.00
2023-05-10T04:04:37.265Z,12.10
2023-05-10T04:07:04.448Z,12.10
2023-05-10T04:09:31.019Z,12.10
2023-05-10T04:11:57.655Z,12.20
2023-05-10T04:14:24.416Z,12.20
2023-05-10T04:16:51.373Z,12.30
2023-05-10T04:19:17.997Z,12.20
2023-05-10T04:21:44.599Z,12.30
2023-05-10T04:24:11.705Z,12.30
2023-05-10T04:26:39.324Z,12.30
2023-05-10T04:29:05.937Z,12.30
2023-05-10T04:31:32.610Z,12.30
2023-05-10T04:33:59.337Z,12.30
2023-05-10T04:36:26.057Z,12.30
2023-05-10T04:38:52.656Z,12.40
2023-05-10T04:41:19.211Z,12.40
2023-05-10T04:43:45.776Z,12.40
2023-05-10T04:46:12.574Z,12.40
2023-05-10T04:48:39.194Z,12.50
2023-05-10T04:51:07.404Z,12.60
2023-05-10T04:53:34.245Z,12.60
2023-05-10T04:56:01.130Z,12.60
2023-05-10T04:58:27.764Z,12.70
2023-05-10T05:00:54.373Z,12.60
2023-05-10T05:03:21.099Z,12.80
2023-05-10T05:05:47.793Z,12.80
2023-05-10T05:08:14.863Z,12.80
2023-05-10T05:10:41.675Z,12.80
2023-05-10T05:13:08.397Z,12.80
2023-05-10T05:15:35.072Z,13.00
2023-05-10T05:18:01.857Z,13.00
2023-05-10T05:20:28.516Z,13.10
2023-05-10T05:22:55.282Z,13.30
2023-05-10T05:25:22.004Z,13.30
2023-05-10T05:27:48.556Z,13.50
2023-05-10T05:30:15.358Z,13.50
2023-05-10T05:32:42.254Z,13.60
2023-05-10T05:35:09.211Z,13.60
2023-05-10T05:40:03.910Z,13.60
2023-05-10T05:42:32.293Z,13.60
2023-05-10T05:44:59.103Z,13.70
2023-05-10T05:47:25.962Z,13.60
2023-05-10T05:49:52.567Z,13.70
2023-05-10T05:52:19.285Z,13.90
2023-05-10T05:54:45.903Z,13.70
2023-05-10T05:57:12.552Z,14.00
2023-05-10T05:59:44.642Z,13.90
2023-05-10T06:02:11.552Z,13.90
2023-05-10T06:04:38.230Z,13.80
2023-05-10T06:09:32.170Z,14.10
2023-05-10T06:21:53.094Z,14.20
2023-05-10T06:24:20.386Z,14.10
2023-05-10T06:26:46.987Z,14.10
2023-05-10T06:29:13.586Z,14.10
2023-05-10T06:31:40.369Z,14.10
2023-05-10T06:34:08.879Z,14.00
2023-05-10T09:19:12.067Z,17.40
2023-05-10T09:21:41.112Z,17.10
2023-05-10T09:24:09.626Z,17.00
2023-05-10T09:26:46.277Z,17.10
2023-05-10T09:29:14.153Z,17.00
2023-05-10T11:05:37.715Z,17.50
2023-05-10T11:08:14.659Z,17.30
2023-05-10T11:10:50.277Z,16.80
2023-05-10T11:13:16.927Z,17.00
2023-05-10T11:15:51.117Z,16.90
2023-05-10T11:18:28.318Z,16.70
2023-05-10T11:23:57.144Z,17.30
2023-05-10T11:26:26.423Z,17.20
2023-05-10T11:28:59.444Z,17.90
2023-05-10T11:31:28.002Z,18.10
2023-05-10T11:34:00.307Z,17.50
2023-05-10T11:36:28.229Z,17.40
2023-05-10T11:38:56.036Z,17.60
2023-05-10T11:41:23.793Z,18.30
2023-05-10T11:43:55.431Z,18.30
2023-05-10T11:46:24.391Z,18.00
2023-05-10T11:48:53.010Z,17.50
2023-05-10T11:51:23.948Z,17.30
2023-05-10T11:53:52.263Z,17.30
2023-05-10T11:56:18.984Z,17.00
2023-05-10T11:58:47.955Z,16.90
2023-05-10T12:01:14.704Z,16.50
2023-05-10T12:03:41.821Z,16.40
2023-05-10T12:06:08.855Z,16.30
2023-05-10T12:11:11.394Z,16.40
2023-05-10T12:13:47.435Z,16.30
2023-05-10T12:16:16.743Z,16.50
2023-05-10T12:18:43.655Z,16.80
2023-05-10T12:21:13.612Z,16.80
2023-05-10T12:23:41.076Z,16.80
2023-05-10T12:26:11.222Z,17.10
2023-05-10T12:28:40.343Z,17.40
2023-05-10T12:31:07.669Z,17.40
2023-05-10T12:33:44.935Z,17.30
2023-05-10T12:36:13.053Z,17.20
2023-05-10T12:38:43.833Z,17.50
2023-05-10T12:41:12.521Z,17.70
2023-05-10T12:43:39.910Z,17.80
2023-05-10T12:48:38.305Z,17.90
2023-05-10T12:51:05.788Z,17.70
2023-05-10T12:53:32.665Z,17.70
2023-05-10T12:55:59.359Z,17.80
2023-05-10T12:58:34.865Z,18.00
2023-05-10T13:01:02.848Z,17.90
2023-05-10T13:03:29.575Z,18.00
2023-05-10T13:05:56.215Z,17.50
2023-05-10T13:08:22.844Z,17.60
2023-05-10T13:10:49.694Z,17.70
2023-05-10T13:13:16.900Z,17.80
2023-05-10T13:15:43.506Z,17.70
2023-05-10T13:18:10.323Z,17.50
2023-05-10T13:20:36.994Z,17.20
2023-05-10T13:23:03.758Z,17.00
2023-05-10T13:25:30.914Z,17.00
2023-05-10T13:27:57.545Z,17.10
2023-05-10T13:30:24.886Z,17.10
2023-05-10T13:32:51.744Z,17.20
2023-05-10T13:35:18.471Z,17.20
2023-05-10T13:37:45.129Z,17.30
2023-05-10T13:40:11.872Z,17.10
2023-05-10T13:42:38.645Z,16.90
2023-05-10T13:45:05.997Z,17.00
2023-05-10T13:47:32.699Z,17.20
2023-05-10T13:49:59.460Z,17.10
2023-05-10T13:52:26.895Z,16.90
2023-05-10T13:54:55.844Z,16.80
2023-05-10T13:57:22.957Z,16.90
2023-05-10T13:59:49.928Z,16.90
2023-05-10T14:02:16.801Z,16.80
2023-05-10T14:04:43.408Z,16.60
2023-05-10T14:07:09.979Z,16.80
2023-05-10T14:09:36.582Z,17.00
2023-05-10T14:12:03.284Z,17.20
2023-05-10T14:14:30.424Z,17.30
2023-05-10T14:16:57.146Z,17.30
2023-05-10T14:19:23.800Z,17.50
2023-05-10T14:21:50.455Z,17.70
2023-05-10T14:24:17.091Z,18.00
2023-05-10T14:26:43.669Z,17.90
2023-05-10T14:29:12.434Z,17.60
2023-05-10T14:31:39.475Z,17.40
2023-05-10T14:34:06.624Z,17.60
2023-05-10T14:36:33.470Z,17.80
2023-05-10T14:39:00.297Z,17.90
2023-05-10T14:41:26.934Z,18.00
2023-05-10T14:43:54.022Z,17.90
2023-05-10T14:46:20.793Z,17.80
2023-05-10T14:48:47.546Z,17.80
2023-05-10T14:51:14.392Z,17.80
2023-05-10T14:53:41.156Z,17.90
2023-05-10T14:56:08.111Z,17.90
2023-05-10T14:58:34.856Z,18.00
2023-05-10T15:01:01.807Z,18.10
2023-05-10T15:03:29.070Z,18.00
2023-05-10T15:05:58.468Z,18.20
2023-05-10T15:08:25.634Z,18.20
2023-05-10T15:10:52.700Z,18.20
2023-05-10T15:32:58.517Z,17.90
2023-05-10T15:35:26.668Z,17.50
2023-05-10T15:37:53.268Z,17.30
2023-05-10T15:40:20.356Z,17.50
2023-05-10T15:45:15.253Z,18.00
2023-05-10T15:47:42.200Z,18.10
2023-05-10T15:50:09.874Z,17.90
2023-05-10T15:52:37.111Z,17.90
2023-05-10T15:55:04.334Z,17.70
2023-05-10T15:57:31.138Z,17.80
2023-05-10T15:59:58.206Z,17.80
2023-05-10T16:02:24.984Z,17.70
2023-05-10T16:04:51.795Z,17.90
2023-05-10T16:07:18.436Z,18.00
2023-05-10T16:09:45.093Z,18.00
2023-05-10T16:12:11.769Z,17.70
2023-05-10T16:14:38.368Z,17.60
2023-05-10T16:17:05.036Z,17.40
2023-05-10T16:19:31.972Z,17.40
2023-05-10T16:21:58.643Z,17.20
2023-05-10T16:24:26.227Z,17.30
2023-05-10T16:26:53.237Z,17.20
2023-05-10T16:29:20.081Z,17.10
2023-05-10T16:31:46.919Z,17.00
2023-05-10T16:34:13.989Z,16.90
2023-05-10T16:36:40.637Z,16.80
2023-05-10T16:39:07.314Z,16.80
2023-05-10T16:41:34.618Z,16.80
2023-05-10T16:44:01.994Z,16.70
2023-05-10T16:46:28.690Z,16.60
2023-05-10T16:48:55.724Z,16.60
2023-05-10T16:51:22.384Z,16.60
2023-05-10T16:53:49.062Z,16.50
2023-05-10T16:56:17.688Z,16.60
2023-05-10T16:58:44.428Z,16.40
2023-05-10T17:01:11.083Z,16.30
2023-05-10T17:03:37.897Z,16.30
2023-05-10T17:06:06.942Z,16.20
2023-05-10T17:08:34.158Z,16.20
2023-05-10T17:11:04.452Z,16.20
2023-05-10T17:13:31.888Z,16.10
2023-05-10T17:15:58.730Z,16.00
2023-05-10T17:18:26.534Z,15.90
2023-05-10T17:20:53.251Z,15.80
2023-05-10T17:23:19.889Z,15.80
2023-05-10T17:25:46.845Z,15.80
2023-05-10T17:28:13.517Z,15.80
2023-05-10T17:30:40.116Z,15.70
2023-05-10T17:33:06.757Z,15.70
2023-05-10T17:35:34.037Z,15.60
2023-05-10T17:38:00.967Z,15.50
2023-05-10T17:40:27.689Z,15.30
2023-05-10T17:42:54.378Z,15.40
2023-05-10T17:45:21.033Z,15.30
2023-05-10T17:47:47.749Z,15.30
2023-05-10T17:50:14.380Z,15.30
2023-05-10T17:52:41.186Z,15.20
2023-05-10T17:55:08.569Z,15.10
2023-05-10T17:57:37.913Z,15.00
2023-05-10T18:00:06.500Z,15.00
2023-05-10T18:02:33.290Z,14.90
2023-05-10T18:05:01.257Z,14.80
2023-05-10T18:07:29.930Z,14.70
2023-05-10T18:09:57.585Z,14.60
2023-05-10T18:12:24.502Z,14.60
2023-05-10T18:14:51.375Z,14.50
2023-05-10T18:17:18.285Z,14.40
2023-05-10T18:19:44.987Z,14.30
2023-05-10T18:22:11.663Z,14.30
2023-05-10T18:24:39.930Z,14.20
2023-05-10T18:27:08.777Z,14.10
2023-05-10T18:29:36.245Z,14.00
2023-05-10T18:32:03.023Z,14.00
2023-05-10T18:34:29.661Z,14.00
2023-05-10T18:36:56.435Z,13.90
2023-05-10T18:39:23.611Z,14.00
2023-05-10T18:41:50.431Z,13.80
2023-05-10T18:44:17.210Z,13.70
2023-05-10T18:46:43.988Z,13.70
2023-05-10T18:49:10.669Z,13.60
2023-05-10T18:51:37.272Z,13.60
2023-05-10T18:54:04.372Z,13.50
2023-05-10T18:56:30.968Z,13.50
2023-05-10T18:58:57.590Z,13.40
2023-05-10T19:01:24.257Z,13.30
2023-05-10T19:03:50.886Z,13.20
2023-05-10T19:06:17.599Z,13.20
2023-05-10T19:08:44.222Z,13.10
2023-05-10T19:11:10.916Z,13.00
2023-05-10T19:13:37.595Z,12.90
2023-05-10T19:16:06.127Z,12.90
2023-05-10T19:18:33.784Z,12.80
2023-05-10T19:21:04.506Z,12.70
2023-05-10T19:23:34.783Z,12.60
2023-05-10T19:26:01.511Z,12.60
2023-05-10T19:28:28.247Z,12.50
2023-05-10T19:30:55.020Z,12.50
2023-05-10T19:33:21.693Z,12.40
2023-05-10T19:35:52.014Z,12.40
2023-05-10T19:38:25.734Z,12.40
2023-05-10T19:40:57.982Z,12.50
2023-05-10T19:43:25.610Z,12.50
2023-05-10T19:45:52.330Z,12.50
2023-05-10T19:48:19.271Z,12.50
2023-05-10T19:50:46.108Z,12.40
2023-05-10T19:53:12.931Z,12.40
2023-05-10T19:55:40.128Z,12.40
2023-05-10T19:58:06.777Z,12.40
2023-05-10T20:00:33.651Z,12.30
2023-05-10T20:03:00.464Z,12.30
2023-05-10T20:05:27.515Z,12.30
2023-05-10T20:07:54.603Z,12.20
2023-05-10T20:10:22.143Z,12.20
2023-05-10T20:12:53.840Z,12.20
2023-05-10T20:15:22.142Z,12.20
2023-05-10T20:17:53.843Z,12.30
2023-05-10T20:20:21.100Z,12.30
2023-05-10T20:22:48.599Z,12.40
2023-05-10T20:25:16.475Z,12.50
2023-05-10T20:27:43.545Z,12.50
2023-05-10T20:30:10.905Z,12.60
2023-05-10T20:32:38.149Z,12.60
2023-05-10T20:35:05.858Z,12.70
2023-05-10T20:37:32.487Z,12.70
2023-05-10T20:39:59.186Z,12.70
2023-05-10T20:42:25.920Z,12.70
2023-05-10T20:44:52.553Z,12.60
2023-05-10T20:47:19.417Z,12.60
2023-05-10T20:49:46.161Z,12.60
2023-05-10T20:52:12.947Z,12.60
2023-05-10T20:54:39.548Z,12.50
2023-05-10T20:57:06.429Z,12.50
2023-05-10T20:59:33.280Z,12.40
2023-05-10T21:02:00.028Z,12.40
2023-05-10T21:04:27.104Z,12.40
2023-05-10T21:06:55.917Z,12.30
2023-05-10T21:09:22.751Z,12.40
2023-05-10T21:11:50.375Z,12.30
2023-05-10T21:14:17.018Z,12.30
2023-05-10T21:16:43.747Z,12.30
2023-05-10T21:19:10.486Z,12.30
2023-05-10T21:21:37.187Z,12.30
2023-05-10T21:24:04.154Z,12.30
2023-05-10T21:26:31.226Z,12.20
2023-05-10T21:28:59.222Z,12.30
2023-05-10T21:31:25.983Z,12.20
2023-05-10T21:33:52.652Z,12.20
2023-05-10T21:36:19.285Z,12.20
2023-05-10T21:38:46.623Z,12.20
2023-05-10T21:41:13.252Z,12.10
2023-05-10T21:43:39.880Z,12.10
2023-05-10T21:46:07.353Z,12.10
2023-05-10T21:48:33.979Z,12.10
2023-05-10T21:51:01.552Z,12.10
2023-05-10T21:53:28.701Z,12.00
2023-05-10T21:55:56.214Z,12.00
2023-05-10T21:58:23.415Z,12.00
2023-05-10T22:00:50.317Z,12.00
2023-05-10T22:03:18.073Z,11.90
2023-05-10T22:05:44.839Z,11.90
2023-05-10T22:08:11.409Z,11.90
2023-05-10T22:10:37.940Z,11.80
2023-05-10T22:13:04.691Z,11.80
2023-05-10T22:15:34.201Z,11.80
2023-05-10T22:18:02.404Z,11.80
2023-05-10T22:20:29.177Z,11.80
2023-05-10T22:22:55.930Z,11.70
2023-05-10T22:25:22.616Z,11.70
2023-05-10T22:27:49.214Z,11.60
2023-05-10T22:30:16.386Z,11.60
2023-05-10T22:32:43.399Z,11.60
2023-05-10T22:35:10.105Z,11.60
2023-05-10T22:37:36.690Z,11.60
2023-05-10T22:40:04.016Z,11.60
2023-05-10T22:42:30.663Z,11.60
2023-05-10T22:44:58.622Z,11.50
2023-05-10T22:47:25.627Z,11.50
2023-05-10T22:49:52.344Z,11.50
2023-05-10T22:52:18.945Z,11.50
2023-05-10T22:54:45.677Z,11.50
2023-05-10T22:57:12.712Z,11.50
2023-05-10T22:59:39.357Z,11.40
2023-05-10T23:02:06.589Z,11.40
2023-05-10T23:04:33.260Z,11.60
2023-05-10T23:06:59.983Z,11.40
2023-05-10T23:09:26.828Z,11.40
2023-05-10T23:11:53.487Z,11.30
2023-05-10T23:14:20.077Z,11.20
2023-05-10T23:16:46.928Z,11.20
2023-05-10T23:19:13.671Z,11.20
2023-05-10T23:21:40.822Z,11.20
2023-05-10T23:24:08.482Z,11.20
2023-05-10T23:26:35.242Z,11.20
2023-05-10T23:29:02.308Z,11.20
2023-05-10T23:31:29.099Z,11.20
2023-05-10T23:33:55.748Z,11.30
2023-05-10T23:36:22.537Z,11.20
2023-05-10T23:38:49.149Z,11.20
2023-05-10T23:41:15.833Z,11.30
2023-05-10T23:43:42.481Z,11.30
2023-05-10T23:46:09.162Z,11.30
2023-05-10T23:48:35.929Z,11.30
2023-05-10T23:51:02.577Z,11.30
2023-05-10T23:53:29.286Z,11.30
2023-05-10T23:55:55.874Z,11.20
2023-05-10T23:58:22.472Z,11.20
